Time;durP1;ratioP1;P1;durP2;ratioP2;P2;SDS_P1;SDS_P2;PMS_P1;PMS_P2;Temp;Humidity;BMP_temperature;BMP_pressure;BME280_temperature;BME280_humidity;BME280_pressure;Samples;Min_cycle;Max_cycle;Signal;HPM_P1;HPM_P2
2023/04/22 00:02:01;;;;;;;39.17;31.13;;;14.70;92.20;;;;;;5012593;28;20513;-68
2023/04/22 00:04:28;;;;;;;36.28;30.55;;;14.60;92.30;;;;;;5013234;28;20026;-67
2023/04/22 00:06:54;;;;;;;31.80;28.27;;;14.60;92.50;;;;;;5012783;28;20034;-70
2023/04/22 00:09:21;;;;;;;35.75;29.85;;;14.60;92.70;;;;;;5013036;28;20105;-64
2023/04/22 00:11:46;;;;;;;33.53;28.75;;;14.60;92.70;;;;;;5012866;28;20049;-71
2023/04/22 00:14:12;;;;;;;32.03;28.20;;;14.60;92.70;;;;;;5012991;28;20076;-68
2023/04/22 00:16:38;;;;;;;33.13;27.88;;;14.60;92.70;;;;;;5012508;28;20531;-70
2023/04/22 00:19:04;;;;;;;31.27;27.90;;;14.60;92.70;;;;;;5012826;28;20030;-68
2023/04/22 00:21:31;;;;;;;34.45;28.67;;;14.60;92.80;;;;;;5012834;28;20037;-71
2023/04/22 00:23:57;;;;;;;30.98;27.58;;;14.60;92.80;;;;;;5012793;28;20453;-65
2023/04/22 00:26:23;;;;;;;33.00;28.55;;;14.50;92.80;;;;;;5012837;28;20052;-65
2023/04/22 00:28:49;;;;;;;33.30;27.73;;;14.50;92.70;;;;;;5013105;28;20463;-70
2023/04/22 00:31:14;;;;;;;30.95;27.65;;;14.50;92.80;;;;;;5012260;28;20467;-64
2023/04/22 00:33:40;;;;;;;32.30;28.63;;;14.50;93.00;;;;;;5012635;28;20467;-65
2023/04/22 00:36:06;;;;;;;32.42;27.55;;;14.50;93.00;;;;;;5012455;28;20038;-70
2023/04/22 00:38:32;;;;;;;31.95;27.75;;;14.50;93.00;;;;;;5011607;28;20025;-66
2023/04/22 00:40:58;;;;;;;31.55;28.00;;;14.50;93.10;;;;;;5012705;28;20349;-64
2023/04/22 00:43:23;;;;;;;30.25;26.20;;;14.50;93.10;;;;;;5012618;28;20077;-67
2023/04/22 00:45:49;;;;;;;32.35;27.77;;;14.40;93.20;;;;;;5012570;28;20057;-67
2023/04/22 00:48:15;;;;;;;31.05;27.38;;;14.40;93.30;;;;;;5012395;28;20034;-67
2023/04/22 00:50:41;;;;;;;30.38;26.67;;;14.40;93.40;;;;;;5012658;28;20032;-66
2023/04/22 00:53:06;;;;;;;29.58;26.42;;;14.40;93.60;;;;;;5011857;28;20359;-65
2023/04/22 00:55:32;;;;;;;30.75;27.48;;;14.40;93.40;;;;;;5011395;28;20109;-68
2023/04/22 00:58:00;;;;;;;32.08;27.50;;;14.40;93.50;;;;;;5012498;28;20149;-66
2023/04/22 01:00:26;;;;;;;30.20;26.92;;;14.30;93.60;;;;;;5011866;28;20596;-65
2023/04/22 01:02:56;;;;;;;29.30;26.08;;;14.30;93.70;;;;;;5012455;28;20570;-65
2023/04/22 01:05:23;;;;;;;28.73;25.60;;;14.30;93.70;;;;;;5012571;28;20165;-63
2023/04/22 01:07:49;;;;;;;29.45;26.35;;;14.30;93.70;;;;;;5012809;28;20042;-68
2023/04/22 01:10:15;;;;;;;29.70;26.30;;;14.30;93.80;;;;;;5012489;28;20048;-63
2023/04/22 01:12:41;;;;;;;30.40;27.15;;;14.30;93.90;;;;;;5012331;28;20479;-67
2023/04/22 01:15:07;;;;;;;29.60;25.80;;;14.30;93.90;;;;;;5012173;28;20474;-62
2023/04/22 01:17:33;;;;;;;29.42;26.25;;;14.30;94.00;;;;;;5012465;28;20030;-62
2023/04/22 01:19:59;;;;;;;30.95;27.60;;;14.30;94.00;;;;;;5012021;28;20022;-66
2023/04/22 01:22:34;;;;;;;30.25;27.05;;;14.30;93.90;;;;;;5012112;28;20487;-68
2023/04/22 01:25:00;;;;;;;30.02;26.92;;;14.30;93.90;;;;;;5012701;28;20057;-68
2023/04/22 01:27:26;;;;;;;29.85;26.75;;;14.30;93.90;;;;;;5015745;28;20072;-64
2023/04/22 01:29:52;;;;;;;28.73;25.73;;;14.30;93.80;;;;;;5014424;28;20029;-65
2023/04/22 01:32:18;;;;;;;29.65;26.65;;;14.20;93.80;;;;;;5015724;28;20101;-63
2023/04/22 01:34:43;;;;;;;27.95;25.10;;;14.30;93.80;;;;;;5015657;28;20022;-68
2023/04/22 01:37:09;;;;;;;26.73;24.05;;;14.30;94.00;;;;;;5015640;28;20040;-67
2023/04/22 01:39:35;;;;;;;29.05;26.05;;;14.30;94.00;;;;;;5015137;28;20481;-67
2023/04/22 01:42:02;;;;;;;28.20;25.42;;;14.20;94.00;;;;;;5015725;28;20053;-67
2023/04/22 01:44:28;;;;;;;27.85;24.98;;;14.20;94.00;;;;;;5015288;28;20030;-68
2023/04/22 01:46:54;;;;;;;30.17;27.17;;;14.20;94.00;;;;;;5015522;28;20434;-63
2023/04/22 01:49:20;;;;;;;29.27;26.27;;;14.20;93.90;;;;;;5014588;28;20033;-66
2023/04/22 01:51:45;;;;;;;30.67;27.40;;;14.20;93.80;;;;;;5015737;28;20538;-67
2023/04/22 01:54:11;;;;;;;28.85;25.83;;;14.20;93.80;;;;;;5015734;28;20065;-68
2023/04/22 01:56:39;;;;;;;32.00;28.73;;;14.20;93.90;;;;;;5015416;28;20462;-63
2023/04/22 01:59:05;;;;;;;30.73;27.58;;;14.20;94.00;;;;;;5015822;28;20030;-63
2023/04/22 02:01:31;;;;;;;32.33;29.13;;;14.10;94.10;;;;;;5014945;28;20093;-65
2023/04/22 02:03:56;;;;;;;31.02;27.98;;;14.10;94.10;;;;;;5014541;28;20463;-63
2023/04/22 02:06:22;;;;;;;32.17;29.02;;;14.10;94.20;;;;;;5015194;28;20034;-65
2023/04/22 02:08:48;;;;;;;32.63;29.33;;;14.10;94.30;;;;;;5015064;28;20032;-67
2023/04/22 02:11:13;;;;;;;34.03;30.52;;;14.10;94.30;;;;;;5015010;28;20026;-65
2023/04/22 02:13:40;;;;;;;33.15;29.80;;;14.10;94.20;;;;;;5014888;28;20453;-63
2023/04/22 02:16:06;;;;;;;32.70;29.50;;;14.10;94.30;;;;;;5014984;28;20025;-66
2023/04/22 02:18:32;;;;;;;33.88;30.58;;;14.10;94.30;;;;;;5014930;28;20096;-65
2023/04/22 02:20:57;;;;;;;32.22;29.02;;;14.10;94.30;;;;;;5014709;28;20057;-63
2023/04/22 02:23:23;;;;;;;31.88;28.77;;;14.00;94.40;;;;;;5014843;28;20034;-66
2023/04/22 02:25:50;;;;;;;37.10;33.30;;;14.00;94.40;;;;;;5014431;28;20057;-65
2023/04/22 02:28:17;;;;;;;36.22;32.53;;;14.00;94.40;;;;;;5015250;28;20072;-65
2023/04/22 02:30:43;;;;;;;35.58;31.98;;;14.00;94.40;;;;;;5014458;28;20025;-63
2023/04/22 02:33:08;;;;;;;36.42;32.35;;;14.00;94.40;;;;;;5014561;28;20100;-64
2023/04/22 02:35:34;;;;;;;36.90;33.03;;;14.00;94.40;;;;;;5014634;28;20034;-69
2023/04/22 02:37:59;;;;;;;35.63;31.92;;;14.10;94.30;;;;;;5013400;28;20429;-64
2023/04/22 02:40:25;;;;;;;35.63;32.05;;;14.00;94.30;;;;;;5014104;28;20557;-69
2023/04/22 02:42:51;;;;;;;36.15;32.53;;;14.00;94.30;;;;;;5014335;28;20033;-67
2023/04/22 02:45:16;;;;;;;34.40;30.83;;;14.00;94.40;;;;;;5014383;28;20471;-64
2023/04/22 02:47:42;;;;;;;34.95;31.40;;;14.00;94.50;;;;;;5014203;28;20108;-67
2023/04/22 02:50:08;;;;;;;34.42;30.92;;;13.90;94.60;;;;;;5014378;28;20018;-66
2023/04/22 02:52:34;;;;;;;35.10;31.48;;;13.90;94.80;;;;;;5014234;28;20061;-66
2023/04/22 02:55:00;;;;;;;33.35;29.95;;;14.00;94.60;;;;;;5013954;28;20571;-67
2023/04/22 02:57:26;;;;;;;32.55;29.35;;;13.90;94.60;;;;;;5014399;28;20537;-62
2023/04/22 02:59:52;;;;;;;32.67;29.38;;;13.90;94.80;;;;;;5013842;28;20030;-65
2023/04/22 03:02:17;;;;;;;31.67;28.38;;;13.90;94.70;;;;;;5014163;28;20029;-63
2023/04/22 03:04:43;;;;;;;32.90;29.65;;;13.90;94.80;;;;;;5013844;28;20041;-63
2023/04/22 03:07:09;;;;;;;34.03;30.42;;;13.90;95.10;;;;;;5014019;28;20554;-66
2023/04/22 03:09:34;;;;;;;34.45;30.92;;;13.90;94.70;;;;;;5013592;28;20521;-61
2023/04/22 03:12:01;;;;;;;31.55;28.35;;;13.90;94.70;;;;;;5013922;28;20127;-63
2023/04/22 03:14:27;;;;;;;34.50;31.00;;;13.90;94.60;;;;;;5013961;28;20084;-64
2023/04/22 03:16:52;;;;;;;33.03;29.77;;;13.90;94.50;;;;;;5014027;28;20026;-64
2023/04/22 03:19:18;;;;;;;34.10;30.58;;;13.90;94.60;;;;;;5013700;28;20475;-63
2023/04/22 03:21:44;;;;;;;34.08;30.67;;;13.90;94.40;;;;;;5013517;28;20038;-63
2023/04/22 03:24:09;;;;;;;32.97;29.75;;;13.90;94.40;;;;;;5013489;28;20072;-64
2023/04/22 03:26:35;;;;;;;32.97;29.67;;;13.80;94.50;;;;;;5013706;28;20022;-63
2023/04/22 03:29:01;;;;;;;31.75;28.70;;;13.80;94.60;;;;;;5013631;28;20033;-68
2023/04/22 03:31:26;;;;;;;33.38;29.92;;;13.80;94.70;;;;;;5013524;28;20037;-66
2023/04/22 03:33:52;;;;;;;31.13;27.98;;;13.80;94.70;;;;;;5013409;28;20487;-62
2023/04/22 03:36:17;;;;;;;32.67;29.40;;;13.80;94.60;;;;;;5013562;28;20526;-64
2023/04/22 03:38:43;;;;;;;31.75;28.42;;;13.80;94.70;;;;;;5013272;28;20022;-66
2023/04/22 03:41:09;;;;;;;33.15;29.77;;;13.80;94.60;;;;;;5013319;28;20068;-66
2023/04/22 03:43:34;;;;;;;32.90;29.50;;;13.80;94.60;;;;;;5013418;28;20104;-64
2023/04/22 03:46:00;;;;;;;31.92;28.73;;;13.80;94.70;;;;;;5013440;28;20494;-65
2023/04/22 03:48:27;;;;;;;33.45;30.05;;;13.80;94.70;;;;;;5013063;28;20744;-68
2023/04/22 03:50:53;;;;;;;33.00;29.75;;;13.80;94.70;;;;;;5013198;28;20101;-67
2023/04/22 03:53:19;;;;;;;32.33;29.05;;;13.80;94.70;;;;;;5011732;28;20113;-62
2023/04/22 03:55:44;;;;;;;33.38;29.92;;;13.80;94.70;;;;;;5013153;28;20033;-64
2023/04/22 03:58:10;;;;;;;32.72;29.52;;;13.70;94.80;;;;;;5013194;28;20554;-68
2023/04/22 04:00:36;;;;;;;32.33;29.10;;;13.70;94.90;;;;;;5013152;28;20026;-63
2023/04/22 04:03:01;;;;;;;33.63;30.17;;;13.70;94.90;;;;;;5013095;28;20066;-65
2023/04/22 04:05:27;;;;;;;32.15;28.75;;;13.70;95.00;;;;;;5013064;28;20475;-66
2023/04/22 04:07:53;;;;;;;33.80;30.40;;;13.70;94.90;;;;;;5012719;28;20479;-63
2023/04/22 04:10:18;;;;;;;34.05;30.52;;;13.70;94.90;;;;;;5012990;28;20117;-65
2023/04/22 04:12:44;;;;;;;33.85;29.20;;;13.70;94.90;;;;;;5012908;28;20025;-65
2023/04/22 04:15:10;;;;;;;31.77;28.27;;;13.70;94.90;;;;;;5013002;28;20032;-65
2023/04/22 04:17:36;;;;;;;30.90;27.85;;;13.70;94.80;;;;;;5013086;28;20036;-66
2023/04/22 04:20:01;;;;;;;31.33;28.10;;;13.70;94.80;;;;;;5012846;28;20102;-65
2023/04/22 04:22:28;;;;;;;32.10;28.85;;;13.70;94.90;;;;;;5012819;28;20421;-67
2023/04/22 04:24:54;;;;;;;32.80;29.40;;;13.70;94.90;;;;;;5012925;28;20631;-65
2023/04/22 04:27:22;;;;;;;30.90;27.70;;;13.60;94.80;;;;;;5012569;28;20083;-65
2023/04/22 04:29:48;;;;;;;32.03;27.50;;;13.60;94.80;;;;;;5012931;28;20029;-69
2023/04/22 04:32:14;;;;;;;31.30;28.13;;;13.60;94.90;;;;;;5012555;28;20026;-66
2023/04/22 04:34:41;;;;;;;31.00;27.83;;;13.60;95.10;;;;;;5012513;28;20080;-64
2023/04/22 04:37:07;;;;;;;30.88;27.67;;;13.60;94.90;;;;;;5012261;28;20046;-65
2023/04/22 04:39:32;;;;;;;28.52;25.63;;;13.60;94.90;;;;;;5013012;28;20029;-70
2023/04/22 04:41:59;;;;;;;31.00;27.88;;;13.60;95.00;;;;;;5012381;28;20390;-65
2023/04/22 04:44:30;;;;;;;32.13;28.83;;;13.60;95.10;;;;;;5012802;28;20100;-67
2023/04/22 04:46:56;;;;;;;31.98;28.77;;;13.60;95.00;;;;;;5012602;28;20029;-66
2023/04/22 04:49:22;;;;;;;32.13;28.83;;;13.60;95.00;;;;;;5012559;28;20077;-64
2023/04/22 04:51:48;;;;;;;32.85;29.38;;;13.60;95.00;;;;;;5012161;28;20057;-70
2023/04/22 04:54:14;;;;;;;33.50;29.05;;;13.60;95.00;;;;;;5012647;28;20506;-65
2023/04/22 04:56:40;;;;;;;34.17;30.58;;;13.60;95.00;;;;;;5012571;28;20509;-62
2023/04/22 04:59:06;;;;;;;32.53;29.15;;;13.60;95.00;;;;;;5012706;28;20025;-63
2023/04/22 05:01:31;;;;;;;32.70;29.30;;;13.60;94.90;;;;;;5015614;28;20037;-63
2023/04/22 05:03:57;;;;;;;34.50;30.98;;;13.50;94.80;;;;;;5016277;28;20515;-62
2023/04/22 05:06:22;;;;;;;36.03;31.50;;;13.50;94.80;;;;;;5015453;28;20030;-70
2023/04/22 05:08:48;;;;;;;33.03;29.58;;;13.50;94.80;;;;;;5015562;28;20091;-69
2023/04/22 05:11:14;;;;;;;31.73;28.42;;;13.60;94.80;;;;;;5016713;28;20347;-64
2023/04/22 05:13:39;;;;;;;33.13;29.73;;;13.50;94.80;;;;;;5016105;28;20065;-63
2023/04/22 05:16:05;;;;;;;34.50;31.00;;;13.50;94.80;;;;;;5016357;28;20315;-65
2023/04/22 05:18:31;;;;;;;33.17;29.75;;;13.50;94.90;;;;;;5015849;28;20030;-67
2023/04/22 05:20:59;;;;;;;33.00;29.45;;;13.50;95.00;;;;;;5015751;28;20105;-68
2023/04/22 05:23:25;;;;;;;34.03;30.58;;;13.50;95.00;;;;;;5015824;28;20034;-63
2023/04/22 05:25:51;;;;;;;36.10;31.65;;;13.50;95.20;;;;;;5015932;28;20026;-63
2023/04/22 05:28:16;;;;;;;32.95;29.63;;;13.50;95.30;;;;;;5015848;28;20040;-66
2023/04/22 05:30:42;;;;;;;37.03;33.13;;;13.50;95.30;;;;;;5015789;28;20363;-65
2023/04/22 05:33:08;;;;;;;34.65;30.95;;;13.50;95.30;;;;;;5015786;28;20054;-65
2023/04/22 05:35:34;;;;;;;34.65;30.92;;;13.50;95.30;;;;;;5015345;28;20081;-67
2023/04/22 05:38:00;;;;;;;34.50;30.90;;;13.50;95.30;;;;;;5015570;28;20034;-62
2023/04/22 05:40:26;;;;;;;37.13;33.22;;;13.50;95.30;;;;;;5015589;28;20100;-67
2023/04/22 05:42:52;;;;;;;38.67;34.67;;;13.50;95.20;;;;;;5015653;28;20479;-65
2023/04/22 05:45:17;;;;;;;39.63;35.35;;;13.50;95.20;;;;;;5015635;28;20029;-65
2023/04/22 05:47:43;;;;;;;41.40;36.30;;;13.50;95.30;;;;;;5015614;28;20038;-67
2023/04/22 05:50:09;;;;;;;40.20;35.88;;;13.50;95.40;;;;;;5015124;28;20022;-65
2023/04/22 05:52:34;;;;;;;39.05;34.83;;;13.50;95.40;;;;;;5015620;28;20093;-70
2023/04/22 05:55:00;;;;;;;42.00;37.53;;;13.50;95.40;;;;;;5015244;28;20467;-67
2023/04/22 05:57:26;;;;;;;39.63;35.50;;;13.50;95.50;;;;;;5015430;28;20101;-69
2023/04/22 05:59:51;;;;;;;41.50;37.05;;;13.50;95.60;;;;;;5015221;28;20037;-64
2023/04/22 06:02:17;;;;;;;40.30;36.05;;;13.50;95.60;;;;;;5015165;28;20042;-65
2023/04/22 06:04:42;;;;;;;40.03;35.92;;;13.50;95.60;;;;;;5015015;28;20105;-62
2023/04/22 06:07:08;;;;;;;40.05;35.88;;;13.50;95.50;;;;;;5015199;28;20108;-64
2023/04/22 06:09:33;;;;;;;39.58;35.58;;;13.50;95.50;;;;;;5014982;28;20025;-64
2023/04/22 06:12:00;;;;;;;41.08;36.35;;;13.50;95.70;;;;;;5014927;28;20164;-65
2023/04/22 06:14:26;;;;;;;39.58;35.22;;;13.50;95.80;;;;;;5015187;28;20096;-64
2023/04/22 06:16:52;;;;;;;38.60;34.40;;;13.50;96.00;;;;;;5014993;28;20590;-64
2023/04/22 06:19:18;;;;;;;37.90;34.10;;;13.50;96.30;;;;;;5014671;28;20532;-66
2023/04/22 06:21:44;;;;;;;36.88;33.00;;;13.50;96.30;;;;;;5015136;28;20030;-65
2023/04/22 06:24:09;;;;;;;38.55;33.85;;;13.60;96.20;;;;;;5014745;28;20486;-64
2023/04/22 06:26:38;;;;;;;36.45;32.55;;;13.60;96.20;;;;;;5015142;28;20053;-64
2023/04/22 06:29:04;;;;;;;37.45;33.63;;;13.60;96.30;;;;;;5014756;28;20053;-63
2023/04/22 06:31:33;;;;;;;38.70;34.47;;;13.60;96.40;;;;;;5014739;28;20335;-69
2023/04/22 06:33:58;;;;;;;37.63;33.83;;;13.70;96.80;;;;;;5014190;28;20052;-64
2023/04/22 06:36:25;;;;;;;37.05;33.25;;;13.70;96.60;;;;;;5014541;28;20499;-68
2023/04/22 06:38:50;;;;;;;36.03;32.13;;;13.70;96.70;;;;;;5014990;28;20026;-71
2023/04/22 06:41:16;;;;;;;32.15;28.80;;;13.80;96.30;;;;;;5014376;28;20471;-67
2023/04/22 06:43:42;;;;;;;36.17;32.13;;;13.80;96.20;;;;;;5012501;28;20069;-64
2023/04/22 06:46:08;;;;;;;33.65;30.25;;;13.80;96.20;;;;;;4999084;28;20072;-66
2023/04/22 06:48:34;;;;;;;33.60;30.02;;;13.80;96.30;;;;;;5012474;28;20041;-63
2023/04/22 06:51:00;;;;;;;31.95;28.75;;;13.90;96.30;;;;;;4993977;28;20010;-65
2023/04/22 06:53:26;;;;;;;31.77;28.38;;;13.90;96.00;;;;;;5001007;28;20018;-69
2023/04/22 06:55:53;;;;;;;31.90;28.65;;;14.00;96.40;;;;;;4999686;28;20037;-68
2023/04/22 06:58:20;;;;;;;31.05;27.85;;;14.00;96.00;;;;;;4997944;28;20021;-68
2023/04/22 07:00:45;;;;;;;31.83;28.52;;;14.00;95.80;;;;;;5002536;28;20025;-67
2023/04/22 07:03:11;;;;;;;31.80;28.45;;;14.00;95.70;;;;;;5001952;28;20049;-68
2023/04/22 07:05:37;;;;;;;30.75;26.88;;;14.10;95.70;;;;;;5000744;28;20110;-67
2023/04/22 07:08:02;;;;;;;30.08;26.88;;;14.10;95.90;;;;;;4997115;28;20046;-64
2023/04/22 07:10:28;;;;;;;29.33;26.23;;;14.20;95.80;;;;;;5001411;28;20034;-68
2023/04/22 07:12:53;;;;;;;28.67;25.67;;;14.20;95.60;;;;;;4998684;28;20027;-65
2023/04/22 07:15:19;;;;;;;28.83;25.73;;;14.20;95.70;;;;;;5002294;28;20057;-71
2023/04/22 07:17:45;;;;;;;20.25;18.27;;;14.20;95.90;;;;;;4998180;28;20017;-65
2023/04/22 07:20:10;;;;;;;26.05;23.45;;;14.20;96.00;;;;;;4993731;28;20042;-66
2023/04/22 07:22:36;;;;;;;27.15;24.40;;;14.20;96.20;;;;;;5004494;28;20483;-67
2023/04/22 07:25:02;;;;;;;27.52;24.65;;;14.30;96.20;;;;;;4993906;28;20038;-67
2023/04/22 07:27:28;;;;;;;27.48;24.60;;;14.30;96.00;;;;;;4991322;28;20022;-66
2023/04/22 07:29:54;;;;;;;27.08;24.27;;;14.30;95.90;;;;;;5007763;28;20037;-72
2023/04/22 07:32:19;;;;;;;27.98;25.25;;;14.40;95.80;;;;;;4999820;28;20038;-68
2023/04/22 07:34:45;;;;;;;27.58;24.67;;;14.40;95.90;;;;;;5001767;28;20022;-67
2023/04/22 07:37:10;;;;;;;27.20;24.50;;;14.40;96.00;;;;;;4994091;28;20116;-71
2023/04/22 07:39:36;;;;;;;28.38;25.52;;;14.40;95.70;;;;;;4997818;28;20018;-72
2023/04/22 07:42:02;;;;;;;29.77;26.92;;;14.50;96.20;;;;;;5005070;28;20050;-70
2023/04/22 07:44:27;;;;;;;26.23;23.60;;;14.50;96.30;;;;;;4999212;28;20022;-70
2023/04/22 07:46:54;;;;;;;27.08;24.38;;;14.60;96.10;;;;;;5014823;28;20030;-69
2023/04/22 07:49:19;;;;;;;26.27;23.67;;;14.60;96.00;;;;;;5007601;28;20049;-67
2023/04/22 07:51:45;;;;;;;26.23;23.50;;;14.60;95.20;;;;;;5004364;28;20053;-76
2023/04/22 07:54:11;;;;;;;24.55;22.02;;;14.70;95.00;;;;;;5006845;28;20026;-66
2023/04/22 07:56:37;;;;;;;25.95;23.23;;;14.60;94.80;;;;;;5008796;28;20026;-66
2023/04/22 07:59:03;;;;;;;25.13;22.63;;;14.70;95.00;;;;;;5007380;28;20640;-70
2023/04/22 08:01:28;;;;;;;24.60;22.10;;;14.70;94.80;;;;;;5001745;28;20064;-69
2023/04/22 08:03:54;;;;;;;24.15;21.73;;;14.70;94.80;;;;;;5009524;28;20030;-73
2023/04/22 08:06:20;;;;;;;25.20;22.75;;;14.70;94.50;;;;;;5006107;28;20070;-70
2023/04/22 08:08:46;;;;;;;25.42;22.73;;;14.70;94.60;;;;;;5006633;28;20080;-71
2023/04/22 08:11:11;;;;;;;24.58;22.17;;;14.70;94.70;;;;;;5007304;28;20531;-70
2023/04/22 08:13:37;;;;;;;23.00;20.60;;;14.80;94.50;;;;;;4998956;28;20038;-68
2023/04/22 08:16:02;;;;;;;21.95;19.75;;;14.80;94.30;;;;;;5005974;28;20034;-69
2023/04/22 08:18:29;;;;;;;21.38;19.08;;;14.80;94.30;;;;;;5011033;28;20037;-69
2023/04/22 08:20:55;;;;;;;22.98;19.40;;;14.80;94.70;;;;;;5003979;28;20474;-71
2023/04/22 08:23:21;;;;;;;19.00;14.73;;;14.90;94.70;;;;;;5001277;28;20049;-68
2023/04/22 08:25:47;;;;;;;15.90;12.40;;;14.80;96.80;;;;;;5003175;28;20454;-71
2023/04/22 08:28:13;;;;;;;13.57;11.57;;;14.90;97.00;;;;;;5011039;28;20028;-71
2023/04/22 08:30:39;;;;;;;14.55;13.00;;;15.10;96.80;;;;;;5008966;28;20026;-66
2023/04/22 08:33:05;;;;;;;16.02;10.45;;;15.20;96.40;;;;;;5004497;28;20065;-67
2023/04/22 08:35:33;;;;;;;12.68;9.38;;;15.30;96.50;;;;;;5013718;28;20038;-66
2023/04/22 08:37:59;;;;;;;14.18;10.30;;;15.40;96.60;;;;;;5020212;28;20057;-67
2023/04/22 08:40:25;;;;;;;11.18;7.50;;;15.50;96.50;;;;;;5011235;28;20069;-70
2023/04/22 08:42:51;;;;;;;9.38;8.07;;;15.70;96.40;;;;;;5014460;28;20041;-65
2023/04/22 08:45:17;;;;;;;11.02;7.75;;;15.80;96.40;;;;;;5014831;28;20387;-69
2023/04/22 08:47:43;;;;;;;10.52;9.32;;;15.90;96.10;;;;;;5016410;28;20021;-66
2023/04/22 08:50:09;;;;;;;10.60;8.88;;;16.00;95.30;;;;;;5017892;28;20018;-70
2023/04/22 08:52:36;;;;;;;9.80;7.78;;;16.10;95.70;;;;;;5015769;28;20030;-75
2023/04/22 08:55:01;;;;;;;10.20;9.13;;;16.10;95.70;;;;;;5010141;28;20100;-66
2023/04/22 08:57:28;;;;;;;10.63;8.80;;;16.20;95.10;;;;;;5009368;28;20105;-79
2023/04/22 08:59:55;;;;;;;8.77;7.35;;;16.10;94.90;;;;;;5014305;28;20018;-66
2023/04/22 09:02:22;;;;;;;9.13;7.65;;;16.20;95.40;;;;;;5010053;28;20038;-67
2023/04/22 09:04:51;;;;;;;7.90;7.10;;;16.30;95.50;;;;;;5012502;28;20095;-68
2023/04/22 09:07:24;;;;;;;9.15;8.25;;;16.40;95.20;;;;;;5013799;28;20076;-74
2023/04/22 09:09:50;;;;;;;8.75;6.10;;;16.40;94.80;;;;;;5017408;28;20075;-74
2023/04/22 09:12:18;;;;;;;11.48;8.52;;;16.40;95.00;;;;;;5014879;28;20025;-71
2023/04/22 09:14:44;;;;;;;12.27;11.00;;;16.50;95.00;;;;;;5017684;28;20017;-73
2023/04/22 09:17:10;;;;;;;10.82;9.15;;;16.40;94.40;;;;;;5014406;28;20078;-77
2023/04/22 09:19:36;;;;;;;9.13;7.90;;;16.40;94.50;;;;;;5008538;28;20481;-67
2023/04/22 09:22:01;;;;;;;11.00;9.77;;;16.40;94.50;;;;;;5020766;28;20033;-69
2023/04/22 09:24:28;;;;;;;10.57;9.40;;;16.40;94.00;;;;;;5017561;28;20076;-70
2023/04/22 09:26:55;;;;;;;11.25;9.80;;;16.40;94.30;;;;;;5010859;28;20505;-74
2023/04/22 09:29:20;;;;;;;12.15;10.82;;;16.40;94.30;;;;;;5011504;28;20040;-69
2023/04/22 09:31:49;;;;;;;13.07;11.32;;;16.40;94.40;;;;;;5009520;28;20014;-68
2023/04/22 09:34:15;;;;;;;11.18;9.95;;;16.50;94.10;;;;;;5011636;28;20022;-66
2023/04/22 09:36:42;;;;;;;13.73;10.10;;;16.50;94.00;;;;;;5010745;28;20034;-70
2023/04/22 09:39:08;;;;;;;14.50;10.13;;;16.40;94.40;;;;;;5007684;28;20036;-65
2023/04/22 09:41:39;;;;;;;14.05;9.38;;;16.40;94.60;;;;;;5012413;28;20018;-69
2023/04/22 09:44:09;;;;;;;11.43;5.22;;;16.40;95.10;;;;;;5010054;28;20029;-69
2023/04/22 09:46:34;;;;;;;10.75;6.38;;;16.60;94.80;;;;;;5007384;28;20030;-73
2023/04/22 09:49:00;;;;;;;12.15;8.07;;;16.70;94.50;;;;;;5017733;28;20387;-67
2023/04/22 09:51:27;;;;;;;13.13;11.82;;;16.80;94.40;;;;;;5006181;28;20062;-69
2023/04/22 09:54:09;;;;;;;12.75;11.13;;;16.70;94.90;;;;;;5010436;28;20091;-69
2023/04/22 09:56:46;;;;;;;11.48;9.02;;;16.60;95.20;;;;;;5012366;28;20025;-69
2023/04/22 09:59:22;;;;;;;15.05;10.65;;;16.50;95.10;;;;;;5010449;28;20105;-69
2023/04/22 10:01:52;;;;;;;11.00;9.82;;;16.60;95.20;;;;;;5009933;28;20077;-68
2023/04/22 10:04:23;;;;;;;12.68;10.32;;;16.70;95.30;;;;;;5005666;28;20475;-74
2023/04/22 10:06:50;;;;;;;16.17;13.77;;;16.60;95.70;;;;;;5012417;28;20038;-69
2023/04/22 10:09:20;;;;;;;18.73;13.52;;;16.50;96.30;;;;;;5013413;28;20165;-73
2023/04/22 10:11:47;;;;;;;17.00;13.65;;;16.50;96.90;;;;;;5011691;28;20025;-73
2023/04/22 10:14:13;;;;;;;19.60;15.38;;;16.50;97.00;;;;;;5009065;28;21387;-69
2023/04/22 10:16:42;;;;;;;19.30;16.58;;;16.50;97.30;;;;;;5009703;28;20049;-73
2023/04/22 10:19:12;;;;;;;23.52;17.17;;;16.50;97.90;;;;;;5006649;28;20068;-71
2023/04/22 10:21:40;;;;;;;25.08;17.48;;;16.40;98.40;;;;;;5004126;28;20025;-72
2023/04/22 10:24:06;;;;;;;26.13;18.65;;;16.40;99.00;;;;;;5002214;28;20026;-75
2023/04/22 10:26:43;;;;;;;32.15;18.58;;;16.50;99.60;;;;;;5007549;28;20033;-72
2023/04/22 10:29:15;;;;;;;29.30;18.40;;;16.40;99.80;;;;;;5006497;28;20037;-72
2023/04/22 10:31:42;;;;;;;26.83;19.08;;;16.50;99.90;;;;;;5003620;28;20026;-76
2023/04/22 10:34:14;;;;;;;23.23;17.30;;;16.50;99.90;;;;;;5006321;28;20590;-72
2023/04/22 10:36:57;;;;;;;21.45;18.35;;;16.50;99.90;;;;;;5008363;28;20037;-73
2023/04/22 10:39:23;;;;;;;;;;;16.50;99.20;;;;;;5006524;28;20449;-70
2023/04/22 10:42:06;;;;;;;23.88;17.33;;;16.40;99.10;;;;;;5012033;28;19917;-71
2023/04/22 10:44:51;;;;;;;23.08;17.02;;;16.40;98.80;;;;;;5009730;28;20539;-73
2023/04/22 10:47:30;;;;;;;21.00;16.35;;;16.40;99.10;;;;;;5008478;28;20026;-72
2023/04/22 10:50:25;;;;;;;19.05;16.60;;;16.40;99.60;;;;;;5011097;28;20030;-72
2023/04/22 10:53:01;;;;;;;21.95;16.45;;;16.40;99.20;;;;;;5005550;28;20026;-68
2023/04/22 10:55:48;;;;;;;20.52;15.60;;;16.40;99.60;;;;;;5003703;28;20029;-73
2023/04/22 10:58:22;;;;;;;17.98;14.95;;;16.50;99.30;;;;;;5005451;28;20452;-72
2023/04/22 11:00:52;;;;;;;21.10;14.82;;;16.50;99.30;;;;;;5004070;28;20032;-69
2023/04/22 11:03:23;;;;;;;18.15;15.00;;;16.50;99.30;;;;;;5004815;28;20498;-72
2023/04/22 11:05:49;;;;;;;19.50;14.40;;;16.50;99.10;;;;;;5011694;28;20099;-69
2023/04/22 11:08:22;;;;;;;19.20;13.68;;;16.50;98.80;;;;;;5017090;28;20042;-69
2023/04/22 11:10:52;;;;;;;18.17;14.50;;;16.50;98.80;;;;;;5010170;28;20050;-71
2023/04/22 11:13:20;;;;;;;18.30;13.00;;;16.50;98.80;;;;;;5010521;28;20025;-70
2023/04/22 11:15:48;;;;;;;16.52;13.70;;;16.50;98.40;;;;;;5010960;28;20505;-75
2023/04/22 11:18:17;;;;;;;14.88;12.68;;;16.60;98.30;;;;;;5007751;28;20540;-68
2023/04/22 11:20:43;;;;;;;15.27;12.38;;;16.60;97.70;;;;;;5000214;28;20456;-70
2023/04/22 11:23:09;;;;;;;13.85;12.18;;;16.60;97.50;;;;;;5008506;28;20034;-76
2023/04/22 11:25:35;;;;;;;16.90;12.65;;;16.60;97.60;;;;;;5006345;28;20027;-72
2023/04/22 11:28:01;;;;;;;15.00;12.10;;;16.60;97.40;;;;;;5001757;28;20068;-69
2023/04/22 11:30:27;;;;;;;15.43;11.15;;;16.60;97.60;;;;;;5005755;28;20037;-75
2023/04/22 11:32:58;;;;;;;15.90;12.77;;;16.60;97.80;;;;;;5004089;28;20033;-72
2023/04/22 11:35:25;;;;;;;14.80;13.20;;;16.60;97.90;;;;;;5005114;28;20026;-68
2023/04/22 11:37:59;;;;;;;17.02;15.23;;;16.70;97.40;;;;;;5008453;28;20157;-79
2023/04/22 11:40:37;;;;;;;18.13;16.33;;;16.70;96.80;;;;;;5008091;28;20485;-69
2023/04/22 11:43:04;;;;;;;16.75;14.98;;;16.80;96.40;;;;;;5005831;28;20042;-71
2023/04/22 11:45:31;;;;;;;17.70;15.90;;;16.80;96.40;;;;;;5010081;28;20022;-72
2023/04/22 11:47:58;;;;;;;17.48;15.77;;;16.80;96.10;;;;;;5008327;28;20025;-71
2023/04/22 11:50:25;;;;;;;15.80;14.20;;;16.90;95.10;;;;;;5009544;28;20049;-67
2023/04/22 11:52:56;;;;;;;15.20;13.70;;;16.90;94.50;;;;;;5004045;28;20394;-70
2023/04/22 11:55:31;;;;;;;15.02;13.52;;;16.80;94.30;;;;;;5006744;28;20479;-72
2023/04/22 11:58:07;;;;;;;15.10;13.60;;;16.80;94.50;;;;;;5006432;28;20026;-67
2023/04/22 12:00:41;;;;;;;16.45;14.82;;;16.80;94.30;;;;;;5007103;28;20030;-70
2023/04/22 12:03:12;;;;;;;17.17;15.25;;;16.80;94.70;;;;;;5011114;28;20386;-71
2023/04/22 12:05:42;;;;;;;18.87;16.87;;;16.80;94.80;;;;;;5012545;28;20065;-67
2023/04/22 12:08:25;;;;;;;18.40;16.55;;;16.80;95.20;;;;;;5008965;28;20033;-73
2023/04/22 12:10:55;;;;;;;18.48;16.55;;;16.80;95.50;;;;;;5012482;28;20038;-67
2023/04/22 12:13:31;;;;;;;22.63;20.27;;;16.90;96.20;;;;;;5008187;28;20026;-69
2023/04/22 12:16:12;;;;;;;22.65;20.42;;;16.90;95.30;;;;;;5005976;28;20139;-70
2023/04/22 12:18:51;;;;;;;22.60;20.27;;;16.90;95.10;;;;;;5009557;28;20026;-68
2023/04/22 12:21:20;;;;;;;23.52;21.23;;;16.90;94.80;;;;;;5005628;28;20034;-66
2023/04/22 12:23:53;;;;;;;23.77;21.38;;;16.90;94.70;;;;;;5003609;28;20511;-67
2023/04/22 12:26:20;;;;;;;24.33;21.83;;;16.90;94.70;;;;;;5006294;28;20026;-69
2023/04/22 12:28:47;;;;;;;22.90;20.50;;;16.90;94.40;;;;;;5003480;28;20053;-69